createdAt,value
2018-08-04T00:00:47.374Z,25.05
2018-08-04T00:05:34.898Z,25.31
2018-08-04T00:10:21.097Z,24.97
2018-08-04T00:15:07.725Z,24.86
2018-08-04T00:19:51.323Z,25.09
2018-08-04T00:24:35.884Z,25.04
2018-08-04T00:29:19.406Z,24.78
2018-08-04T00:34:06.609Z,24.96
2018-08-04T00:38:50.244Z,24.83
2018-08-04T00:43:34.752Z,24.40
2018-08-04T00:48:18.242Z,24.77
2018-08-04T00:53:06.205Z,24.34
2018-08-04T00:57:49.783Z,24.54
2018-08-04T01:02:34.485Z,24.50
2018-08-04T01:07:17.917Z,24.42
2018-08-04T01:12:01.485Z,24.63
2018-08-04T01:16:45.051Z,24.60
2018-08-04T01:21:28.429Z,24.36
2018-08-04T01:26:15.638Z,24.36
2018-08-04T01:30:59.247Z,24.31
2018-08-04T01:35:48.401Z,24.49
2018-08-04T01:40:31.959Z,24.62
2018-08-04T01:45:19.359Z,24.44
2018-08-04T01:50:02.898Z,24.69
2018-08-04T01:54:52.028Z,24.60
2018-08-04T01:59:35.679Z,24.36
2018-08-04T02:04:22.595Z,24.34
2018-08-04T02:09:09.496Z,24.11
2018-08-04T02:13:56.534Z,24.48
2018-08-04T02:18:40.189Z,24.34
2018-08-04T02:23:27.239Z,24.08
2018-08-04T02:28:10.856Z,24.21
2018-08-04T02:32:55.477Z,24.04
2018-08-04T02:37:38.989Z,24.13
2018-08-04T02:42:23.540Z,24.03
2018-08-04T02:47:06.938Z,23.83
2018-08-04T02:51:50.666Z,24.13
2018-08-04T02:56:34.299Z,24.01
2018-08-04T03:01:17.762Z,24.10
2018-08-04T03:06:05.706Z,24.02
2018-08-04T03:10:49.598Z,24.01
2018-08-04T03:15:36.506Z,23.87
2018-08-04T03:20:20.092Z,23.90
2018-08-04T03:25:07.890Z,24.09
2018-08-04T03:29:51.546Z,24.05
2018-08-04T03:34:35.309Z,23.93
2018-08-04T03:39:18.790Z,23.74
2018-08-04T03:44:03.286Z,23.82
2018-08-04T03:48:46.914Z,23.71
2018-08-04T03:53:34.238Z,23.74
2018-08-04T03:58:17.578Z,23.68
2018-08-04T04:03:01.363Z,23.78
2018-08-04T04:07:45.057Z,23.71
2018-08-04T04:12:30.599Z,23.77
2018-08-04T04:17:14.027Z,23.77
2018-08-04T04:21:57.772Z,23.68
2018-08-04T04:26:41.409Z,23.67
2018-08-04T04:31:25.081Z,23.80
2018-08-04T04:36:08.621Z,23.67
2018-08-04T04:40:52.209Z,23.87
2018-08-04T04:45:39.439Z,23.84
2018-08-04T04:50:23.075Z,23.96
2018-08-04T04:55:06.795Z,23.99
2018-08-04T04:59:50.500Z,23.96
2018-08-04T05:04:39.231Z,23.85
2018-08-04T05:09:23.546Z,23.96
2018-08-04T05:14:10.354Z,24.12
2018-08-04T05:18:55.468Z,24.01
2018-08-04T05:23:43.006Z,24.10
2018-08-04T05:28:27.530Z,24.10
2018-08-04T05:33:14.562Z,24.18
2018-08-04T05:38:00.007Z,24.30
2018-08-04T05:42:43.545Z,24.29
2018-08-04T05:47:27.173Z,24.39
2018-08-04T05:52:10.838Z,24.47
2018-08-04T05:56:54.417Z,24.44
2018-08-04T06:01:38.866Z,24.60
2018-08-04T06:06:22.508Z,24.70
2018-08-04T06:11:06.153Z,24.65
2018-08-04T06:15:49.759Z,24.77
2018-08-04T06:20:33.331Z,24.83
2018-08-04T06:25:19.949Z,24.83
2018-08-04T06:30:03.465Z,24.99
2018-08-04T06:34:47.005Z,25.03
2018-08-04T06:39:30.617Z,25.18
2018-08-04T06:44:17.482Z,25.18
2018-08-04T06:49:00.933Z,25.24
2018-08-04T06:53:45.413Z,25.50
2018-08-04T06:58:37.061Z,25.64
2018-08-04T07:03:24.099Z,25.70
2018-08-04T07:08:07.666Z,25.44
2018-08-04T07:12:51.283Z,25.51
2018-08-04T07:17:34.863Z,25.68
2018-08-04T07:22:22.165Z,25.90
2018-08-04T07:27:06.107Z,26.14
2018-08-04T07:31:49.605Z,26.01
2018-08-04T07:36:33.218Z,25.78
2018-08-04T07:41:16.945Z,26.73
2018-08-04T07:46:00.473Z,26.20
2018-08-04T07:50:44.081Z,26.37
2018-08-04T07:55:27.696Z,26.22
2018-08-04T08:00:11.525Z,26.38
2018-08-04T08:04:55.297Z,26.62
2018-08-04T08:09:38.829Z,26.50
2018-08-04T08:14:23.438Z,26.51
2018-08-04T08:19:07.017Z,26.73
2018-08-04T08:23:55.248Z,27.08
2018-08-04T08:28:40.452Z,27.04
2018-08-04T08:33:25.172Z,26.53
2018-08-04T08:38:08.644Z,27.18
2018-08-04T08:42:55.505Z,27.27
2018-08-04T08:47:39.069Z,27.38
2018-08-04T08:52:23.597Z,27.22
2018-08-04T08:57:07.271Z,27.58
2018-08-04T09:01:50.856Z,27.66
2018-08-04T09:06:34.359Z,27.40
2018-08-04T09:11:18.002Z,27.61
2018-08-04T09:16:01.552Z,27.54
2018-08-04T09:20:45.142Z,27.64
2018-08-04T09:25:28.799Z,28.12
2018-08-04T09:30:13.576Z,27.59
2018-08-04T09:35:01.103Z,27.21
2018-08-04T09:39:44.672Z,28.04
2018-08-04T09:44:31.223Z,27.49
2018-08-04T09:49:14.717Z,27.85
2018-08-04T09:54:01.816Z,27.87
2018-08-04T09:58:45.443Z,27.88
2018-08-04T10:03:29.228Z,27.65
2018-08-04T10:08:12.705Z,28.64
2018-08-04T10:13:00.045Z,27.72
2018-08-04T10:17:43.686Z,28.37
2018-08-04T10:22:27.337Z,28.72
2018-08-04T10:27:10.919Z,28.46
2018-08-04T10:31:58.406Z,28.09
2018-08-04T10:36:41.822Z,27.67
2018-08-04T10:41:25.557Z,27.44
2018-08-04T10:46:09.019Z,27.72
2018-08-04T10:50:52.550Z,27.84
2018-08-04T10:55:36.189Z,28.39
2018-08-04T11:00:19.690Z,28.18
2018-08-04T11:05:03.202Z,28.33
2018-08-04T11:09:46.722Z,28.37
2018-08-04T11:14:33.242Z,28.35
2018-08-04T11:19:16.874Z,28.25
2018-08-04T11:24:01.495Z,29.02
2018-08-04T11:28:44.937Z,28.42
2018-08-04T11:33:29.622Z,28.69
2018-08-04T11:38:13.180Z,28.53
2018-08-04T11:42:56.849Z,28.42
2018-08-04T11:47:40.478Z,28.38
2018-08-04T11:52:24.219Z,28.79
2018-08-04T11:57:07.851Z,28.80
2018-08-04T12:01:51.561Z,28.85
2018-08-04T12:06:35.797Z,29.02
2018-08-04T12:11:19.478Z,28.88
2018-08-04T12:16:03.000Z,28.99
2018-08-04T12:20:46.488Z,28.93
2018-08-04T12:25:30.056Z,29.89
2018-08-04T12:30:13.516Z,30.11
2018-08-04T12:34:57.068Z,29.04
2018-08-04T12:39:40.449Z,29.12
2018-08-04T12:44:27.658Z,28.94
2018-08-04T12:49:11.372Z,28.95
2018-08-04T12:53:55.155Z,28.93
2018-08-04T12:58:38.658Z,28.83
2018-08-04T13:03:25.576Z,28.87
2018-08-04T13:08:08.933Z,28.90
2018-08-04T13:12:52.584Z,28.89
2018-08-04T13:17:36.111Z,29.13
2018-08-04T13:22:23.110Z,28.77
2018-08-04T13:27:07.032Z,28.72
2018-08-04T13:31:50.459Z,29.12
2018-08-04T13:36:33.946Z,28.85
2018-08-04T13:41:17.657Z,28.86
2018-08-04T13:46:01.307Z,28.95
2018-08-04T13:50:48.770Z,29.01
2018-08-04T13:55:32.390Z,28.95
2018-08-04T14:00:19.085Z,28.94
2018-08-04T14:05:02.697Z,29.06
2018-08-04T14:09:46.318Z,29.23
2018-08-04T14:14:33.469Z,29.11
2018-08-04T14:19:17.043Z,28.97
2018-08-04T14:24:01.640Z,28.94
2018-08-04T14:28:45.680Z,29.13
2018-08-04T14:33:30.046Z,29.20
2018-08-04T14:38:13.595Z,29.24
2018-08-04T14:42:57.425Z,29.33
2018-08-04T14:47:40.949Z,29.30
2018-08-04T14:52:24.555Z,29.07
2018-08-04T14:57:08.050Z,28.94
2018-08-04T15:01:52.841Z,29.23
2018-08-04T15:06:36.480Z,29.11
2018-08-04T15:11:19.996Z,29.09
2018-08-04T15:16:07.057Z,29.14
2018-08-04T15:20:51.701Z,29.25
2018-08-04T15:25:35.145Z,29.10
2018-08-04T15:30:19.807Z,29.02
2018-08-04T15:35:03.272Z,29.01
2018-08-04T15:39:46.869Z,28.97
2018-08-04T15:44:30.530Z,28.91
2018-08-04T15:49:14.056Z,29.03
2018-08-04T15:54:00.731Z,28.92
2018-08-04T15:58:44.280Z,29.11
2018-08-04T16:03:27.950Z,28.92
2018-08-04T16:08:11.548Z,28.95
2018-08-04T16:12:55.166Z,29.01
2018-08-04T16:17:38.705Z,29.00
2018-08-04T16:22:25.921Z,29.04
2018-08-04T16:27:09.611Z,28.87
2018-08-04T16:31:53.325Z,28.97
2018-08-04T16:36:36.789Z,28.79
2018-08-04T16:41:20.544Z,28.88
2018-08-04T16:46:04.080Z,28.90
2018-08-04T16:50:52.859Z,28.89
2018-08-04T16:55:36.343Z,28.93
2018-08-04T17:00:20.198Z,28.87
2018-08-04T17:05:03.755Z,28.78
2018-08-04T17:09:48.470Z,28.83
2018-08-04T17:14:33.104Z,28.80
2018-08-04T17:19:16.731Z,28.82
2018-08-04T17:24:00.443Z,28.80
2018-08-04T17:28:44.030Z,28.79
2018-08-04T17:33:27.690Z,28.74
2018-08-04T17:38:11.152Z,28.74
2018-08-04T17:42:54.772Z,28.67
2018-08-04T17:47:38.453Z,28.67
2018-08-04T17:52:23.556Z,28.49
2018-08-04T17:57:07.169Z,28.46
2018-08-04T18:01:51.596Z,28.36
2018-08-04T18:06:35.136Z,28.23
2018-08-04T18:11:22.129Z,28.06
2018-08-04T18:16:05.692Z,28.25
2018-08-04T18:20:49.323Z,27.65
2018-08-04T18:25:32.882Z,28.04
2018-08-04T18:30:17.806Z,27.97
2018-08-04T18:35:01.458Z,27.84
2018-08-04T18:39:50.570Z,27.91
2018-08-04T18:44:34.031Z,27.73
2018-08-04T18:49:17.493Z,27.57
2018-08-04T18:54:01.068Z,27.49
2018-08-04T18:58:44.660Z,27.67
2018-08-04T19:03:33.297Z,27.44
2018-08-04T19:08:17.663Z,27.38
2018-08-04T19:13:04.273Z,27.21
2018-08-04T19:17:51.125Z,27.26
2018-08-04T19:22:38.444Z,27.02
2018-08-04T19:27:22.057Z,27.15
2018-08-04T19:32:09.838Z,27.13
2018-08-04T19:36:53.449Z,27.19
2018-08-04T19:41:40.648Z,27.29
2018-08-04T19:46:24.485Z,26.94
2018-08-04T19:51:09.889Z,26.27
2018-08-04T19:55:53.519Z,26.21
2018-08-04T20:00:38.180Z,25.97
2018-08-04T20:05:21.771Z,26.07
2018-08-04T20:10:06.405Z,26.59
2018-08-04T20:14:49.867Z,26.52
2018-08-04T20:19:37.570Z,26.52
2018-08-04T20:24:21.031Z,26.56
2018-08-04T20:29:04.586Z,26.03
2018-08-04T20:33:48.278Z,26.08
2018-08-04T20:38:31.902Z,26.11
2018-08-04T20:43:15.526Z,25.91
2018-08-04T20:47:59.041Z,25.59
2018-08-04T20:52:46.150Z,25.68
2018-08-04T20:57:29.703Z,25.57
2018-08-04T21:02:16.484Z,25.59
2018-08-04T21:07:00.857Z,25.45
2018-08-04T21:11:52.025Z,25.66
2018-08-04T21:16:35.544Z,25.54
2018-08-04T21:21:23.088Z,25.50
2018-08-04T21:26:06.613Z,25.41
2018-08-04T21:30:51.574Z,25.53
2018-08-04T21:35:35.141Z,25.57
2018-08-04T21:40:22.561Z,25.57
2018-08-04T21:45:06.137Z,25.64
2018-08-04T21:49:50.758Z,25.62
2018-08-04T21:54:34.090Z,25.54
2018-08-04T21:59:18.786Z,25.56
2018-08-04T22:04:02.488Z,25.46
2018-08-04T22:09:00.363Z,25.48
2018-08-04T22:13:43.975Z,25.51
2018-08-04T22:18:27.422Z,25.36
2018-08-04T22:23:12.001Z,25.48
2018-08-04T22:27:56.460Z,26.02
2018-08-04T22:32:43.442Z,26.33
2018-08-04T22:37:27.005Z,25.99
2018-08-04T22:42:10.526Z,26.18
2018-08-04T22:46:54.179Z,26.20
2018-08-04T22:51:40.697Z,26.26
2018-08-04T22:56:24.747Z,25.99
2018-08-04T23:01:11.557Z,26.25
2018-08-04T23:05:55.213Z,26.15
2018-08-04T23:10:43.148Z,26.15
2018-08-04T23:15:27.565Z,26.17
2018-08-04T23:20:12.309Z,25.83
2018-08-04T23:24:55.868Z,25.97
2018-08-04T23:29:43.282Z,26.19
2018-08-04T23:34:26.717Z,26.19
2018-08-04T23:39:11.089Z,26.10
2018-08-04T23:43:54.621Z,26.06
2018-08-04T23:48:38.221Z,26.09
2018-08-04T23:53:21.784Z,25.96
2018-08-04T23:58:05.393Z,25.82
